createdAt,value
2023-02-23T00:00:32.752Z,22.27
2023-02-23T00:03:02.082Z,27.13
2023-02-23T00:05:31.492Z,24.08
2023-02-23T00:07:59.634Z,21.48
2023-02-23T00:10:31.723Z,27.15
2023-02-23T00:13:00.247Z,21.70
2023-02-23T00:15:32.229Z,26.42
2023-02-23T00:18:04.762Z,29.10
2023-02-23T00:20:32.863Z,25.23
2023-02-23T00:23:01.615Z,25.98
2023-02-23T00:25:31.250Z,26.92
2023-02-23T00:28:03.555Z,26.95
2023-02-23T00:30:31.968Z,22.55
2023-02-23T00:33:00.137Z,22.88
2023-02-23T00:35:28.394Z,28.10
2023-02-23T00:37:59.648Z,20.48
2023-02-23T00:40:29.467Z,25.23
2023-02-23T00:43:01.884Z,19.42
2023-02-23T00:45:30.714Z,19.52
2023-02-23T00:47:59.137Z,24.02
2023-02-23T00:50:27.708Z,24.98
2023-02-23T00:52:59.785Z,30.35
2023-02-23T00:55:28.579Z,29.55
2023-02-23T00:57:58.475Z,22.67
2023-02-23T01:00:26.422Z,30.08
2023-02-23T01:02:56.001Z,26.00
2023-02-23T01:05:24.244Z,16.67
2023-02-23T01:07:54.935Z,23.40
2023-02-23T01:10:24.652Z,17.85
2023-02-23T01:12:56.322Z,22.63
2023-02-23T01:15:24.389Z,20.05
2023-02-23T01:17:52.664Z,26.88
2023-02-23T01:20:21.623Z,22.80
2023-02-23T01:22:50.449Z,18.27
2023-02-23T01:25:20.468Z,19.70
2023-02-23T01:27:48.781Z,16.40
2023-02-23T01:30:16.957Z,20.35
2023-02-23T01:32:46.310Z,15.18
2023-02-23T01:35:14.888Z,22.77
2023-02-23T01:37:44.931Z,20.60
2023-02-23T01:40:29.160Z,23.15
2023-02-23T01:42:58.605Z,22.00
2023-02-23T01:45:32.597Z,23.10
2023-02-23T01:48:15.537Z,20.60
2023-02-23T01:51:00.775Z,23.67
2023-02-23T01:53:34.904Z,17.63
2023-02-23T01:56:17.895Z,21.42
2023-02-23T01:58:52.580Z,20.40
2023-02-23T02:01:22.101Z,19.50
2023-02-23T02:04:01.599Z,19.50
2023-02-23T02:06:29.688Z,16.55
2023-02-23T02:09:08.252Z,18.38
2023-02-23T02:11:36.579Z,19.77
2023-02-23T02:14:16.244Z,18.08
2023-02-23T02:17:06.942Z,17.60
2023-02-23T02:20:01.721Z,20.52
2023-02-23T02:23:09.942Z,23.25
2023-02-23T02:26:16.233Z,17.30
2023-02-23T02:29:26.820Z,19.60
2023-02-23T02:32:11.496Z,25.48
2023-02-23T02:35:24.220Z,15.90
2023-02-23T02:38:16.699Z,24.83
2023-02-23T02:40:56.360Z,21.05
2023-02-23T02:43:52.677Z,20.45
2023-02-23T02:46:27.877Z,23.23
2023-02-23T02:49:23.334Z,18.88
2023-02-23T02:52:07.180Z,23.92
2023-02-23T02:54:41.695Z,19.15
2023-02-23T02:57:10.798Z,19.77
2023-02-23T03:00:06.411Z,19.90
2023-02-23T03:02:56.452Z,17.25
2023-02-23T03:05:46.711Z,25.95
2023-02-23T03:08:56.486Z,24.58
2023-02-23T03:11:44.420Z,21.95
2023-02-23T03:15:04.975Z,24.38
2023-02-23T03:18:07.799Z,19.52
2023-02-23T03:21:09.147Z,22.95
2023-02-23T03:24:15.122Z,22.42
2023-02-23T03:27:40.903Z,22.58
2023-02-23T03:30:52.412Z,23.67
2023-02-23T03:33:49.190Z,20.98
2023-02-23T03:36:39.957Z,22.63
2023-02-23T03:39:30.640Z,23.85
2023-02-23T03:42:18.221Z,25.27
2023-02-23T03:45:08.701Z,20.05
2023-02-23T03:48:00.769Z,26.17
2023-02-23T03:51:00.617Z,26.27
2023-02-23T03:53:54.997Z,23.42
2023-02-23T03:56:41.892Z,20.98
2023-02-23T03:59:35.530Z,25.80
2023-02-23T04:02:22.240Z,31.30
2023-02-23T04:05:11.424Z,23.95
2023-02-23T04:07:59.734Z,22.70
2023-02-23T04:10:49.880Z,26.15
2023-02-23T04:13:20.604Z,23.83
2023-02-23T04:15:53.046Z,23.95
2023-02-23T04:18:26.661Z,22.63
2023-02-23T04:20:55.551Z,31.98
2023-02-23T04:23:24.263Z,22.65
2023-02-23T04:25:52.696Z,27.08
2023-02-23T04:28:22.539Z,30.65
2023-02-23T04:30:53.036Z,29.65
2023-02-23T04:33:22.321Z,29.35
2023-02-23T04:35:50.594Z,23.92
2023-02-23T04:38:22.994Z,26.13
2023-02-23T04:40:51.917Z,25.20
2023-02-23T04:43:21.282Z,26.40
2023-02-23T04:45:49.562Z,25.17
2023-02-23T04:48:18.277Z,25.17
2023-02-23T04:50:46.169Z,23.80
2023-02-23T04:53:14.088Z,32.63
2023-02-23T04:55:44.135Z,25.33
2023-02-23T04:58:15.977Z,32.50
2023-02-23T05:00:44.139Z,28.75
2023-02-23T05:03:12.468Z,24.48
2023-02-23T05:05:40.404Z,24.00
2023-02-23T05:08:09.018Z,20.60
2023-02-23T05:10:40.457Z,23.55
2023-02-23T05:13:08.800Z,23.17
2023-02-23T05:15:38.760Z,21.65
2023-02-23T05:18:08.312Z,29.38
2023-02-23T05:20:36.797Z,28.52
2023-02-23T05:23:06.048Z,19.27
2023-02-23T05:25:34.279Z,31.67
2023-02-23T05:28:06.051Z,27.13
2023-02-23T05:30:34.824Z,25.88
2023-02-23T05:33:03.021Z,25.90
2023-02-23T05:35:31.728Z,18.52
2023-02-23T05:37:59.763Z,20.48
2023-02-23T05:40:27.757Z,23.23
2023-02-23T05:43:00.580Z,25.23
2023-02-23T05:45:28.702Z,17.83
2023-02-23T05:47:58.247Z,20.23
2023-02-23T05:50:26.313Z,22.88
2023-02-23T05:52:54.418Z,22.73
2023-02-23T05:55:22.727Z,21.63
2023-02-23T05:57:52.054Z,27.88
2023-02-23T06:00:22.396Z,22.67
2023-02-23T06:02:53.220Z,29.17
2023-02-23T06:05:25.686Z,27.30
2023-02-23T06:07:54.038Z,20.73
2023-02-23T06:10:22.362Z,23.58
2023-02-23T06:12:50.563Z,21.00
2023-02-23T06:15:20.526Z,23.08
2023-02-23T06:17:51.301Z,24.55
2023-02-23T06:20:22.955Z,27.70
2023-02-23T06:22:50.911Z,35.33
2023-02-23T06:25:20.079Z,30.55
2023-02-23T06:27:54.902Z,27.92
2023-02-23T06:30:23.837Z,25.58
2023-02-23T06:32:51.902Z,25.48
2023-02-23T06:35:22.281Z,22.17
2023-02-23T06:37:50.466Z,25.08
2023-02-23T06:40:18.777Z,24.00
2023-02-23T06:42:47.198Z,28.77
2023-02-23T06:45:16.022Z,31.00
2023-02-23T06:47:45.402Z,25.02
2023-02-23T06:50:16.564Z,20.25
2023-02-23T06:52:46.113Z,26.27
2023-02-23T06:55:17.243Z,23.75
2023-02-23T06:57:49.654Z,25.10
2023-02-23T07:00:18.060Z,24.58
2023-02-23T07:02:45.989Z,22.33
2023-02-23T07:05:13.945Z,20.10
2023-02-23T07:07:45.675Z,29.00
2023-02-23T07:10:14.094Z,30.63
2023-02-23T07:12:43.165Z,20.63
2023-02-23T07:15:11.891Z,20.40
2023-02-23T07:17:40.208Z,24.23
2023-02-23T07:20:13.299Z,25.38
2023-02-23T07:22:43.180Z,23.35
2023-02-23T07:25:11.655Z,24.55
2023-02-23T07:27:42.381Z,17.67
2023-02-23T07:30:11.177Z,26.02
2023-02-23T07:32:40.380Z,19.48
2023-02-23T07:35:08.743Z,26.15
2023-02-23T07:37:36.860Z,17.05
2023-02-23T07:40:05.812Z,22.50
2023-02-23T07:42:37.942Z,25.08
2023-02-23T07:45:07.545Z,19.45
2023-02-23T07:47:38.577Z,21.63
2023-02-23T07:50:10.628Z,19.92
2023-02-23T07:52:58.695Z,21.95
2023-02-23T07:55:26.909Z,17.10
2023-02-23T07:57:57.242Z,21.15
2023-02-23T08:00:29.202Z,21.42
2023-02-23T08:02:57.255Z,13.85
2023-02-23T08:05:26.744Z,17.33
2023-02-23T08:07:56.745Z,19.30
2023-02-23T08:10:24.930Z,20.80
2023-02-23T08:12:53.314Z,20.73
2023-02-23T08:15:21.953Z,21.33
2023-02-23T08:17:49.898Z,26.83
2023-02-23T08:20:18.028Z,19.88
2023-02-23T08:22:49.753Z,22.52
2023-02-23T08:25:18.496Z,19.02
2023-02-23T08:27:52.059Z,16.67
2023-02-23T08:30:21.511Z,16.45
2023-02-23T08:32:51.175Z,18.38
2023-02-23T08:35:20.388Z,20.83
2023-02-23T08:37:48.509Z,18.50
2023-02-23T08:40:20.977Z,16.73
2023-02-23T08:42:53.164Z,21.00
2023-02-23T08:45:23.898Z,26.48
2023-02-23T08:47:52.192Z,18.90
2023-02-23T08:50:21.076Z,16.50
2023-02-23T08:53:13.402Z,12.30
2023-02-23T08:55:45.061Z,20.20
2023-02-23T08:58:13.810Z,15.85
2023-02-23T09:00:41.996Z,22.20
2023-02-23T09:03:10.284Z,19.20
2023-02-23T09:05:38.946Z,16.02
2023-02-23T09:08:07.297Z,18.35
2023-02-23T09:10:36.153Z,20.30
2023-02-23T09:13:08.172Z,17.65
2023-02-23T09:15:39.715Z,17.92
2023-02-23T09:18:10.043Z,13.95
2023-02-23T09:20:38.757Z,19.15
2023-02-23T09:23:08.250Z,19.73
2023-02-23T09:25:43.307Z,14.48
2023-02-23T09:28:17.417Z,31.00
2023-02-23T09:30:46.034Z,18.65
2023-02-23T09:33:14.440Z,16.33
2023-02-23T09:35:45.221Z,19.85
2023-02-23T09:38:16.106Z,16.83
2023-02-23T09:40:50.001Z,18.90
2023-02-23T09:43:40.920Z,18.52
2023-02-23T09:46:33.690Z,16.75
2023-02-23T09:49:03.297Z,18.00
2023-02-23T09:51:33.521Z,12.65
2023-02-23T09:54:03.165Z,16.15
2023-02-23T09:56:39.855Z,14.10
2023-02-23T09:59:11.819Z,18.08
2023-02-23T10:01:47.294Z,14.02
2023-02-23T10:04:16.661Z,16.08
2023-02-23T10:06:53.493Z,17.30
2023-02-23T10:09:53.411Z,18.20
2023-02-23T10:15:45.796Z,15.07
2023-02-23T10:18:20.238Z,16.63
2023-02-23T10:21:13.792Z,15.30
2023-02-23T10:24:04.298Z,18.42
2023-02-23T10:26:54.382Z,13.50
2023-02-23T10:29:34.741Z,17.15
2023-02-23T10:32:42.205Z,15.38
2023-02-23T10:35:15.266Z,15.32
2023-02-23T10:37:46.806Z,11.07
2023-02-23T10:40:33.189Z,15.48
2023-02-23T10:43:03.020Z,13.77
2023-02-23T10:45:35.070Z,14.25
2023-02-23T10:48:05.438Z,18.13
2023-02-23T10:50:37.899Z,16.98
2023-02-23T10:53:19.149Z,12.75
2023-02-23T10:55:47.729Z,19.65
2023-02-23T10:58:23.215Z,15.40
2023-02-23T11:00:53.299Z,15.73
2023-02-23T11:03:33.904Z,17.67
2023-02-23T11:06:05.306Z,18.30
2023-02-23T11:08:34.952Z,15.25
2023-02-23T11:11:06.802Z,18.88
2023-02-23T11:13:45.231Z,14.93
2023-02-23T11:16:14.673Z,17.63
2023-02-23T11:19:02.268Z,15.13
2023-02-23T11:21:38.687Z,15.80
2023-02-23T11:24:26.819Z,12.60
2023-02-23T11:27:00.827Z,14.93
2023-02-23T11:29:44.774Z,10.32
2023-02-23T11:32:24.690Z,11.90
2023-02-23T11:35:12.223Z,12.32
2023-02-23T11:37:41.835Z,14.80
2023-02-23T11:40:29.690Z,16.13
2023-02-23T11:43:14.905Z,18.25
2023-02-23T11:45:56.668Z,14.57
2023-02-23T11:48:35.158Z,17.02
2023-02-23T11:51:03.253Z,15.65
2023-02-23T11:53:40.566Z,17.25
2023-02-23T11:56:11.298Z,16.40
2023-02-23T11:58:40.896Z,14.75
2023-02-23T12:01:13.876Z,17.58
2023-02-23T12:03:55.194Z,20.35
2023-02-23T12:06:34.424Z,17.10
2023-02-23T12:09:05.257Z,16.40
2023-02-23T12:11:39.331Z,15.75
2023-02-23T12:14:52.484Z,14.48
2023-02-23T12:17:28.274Z,16.73
2023-02-23T12:20:06.011Z,12.40
2023-02-23T12:22:37.294Z,9.48
2023-02-23T12:25:14.295Z,14.05
2023-02-23T12:28:18.308Z,10.52
2023-02-23T12:30:57.015Z,15.30
2023-02-23T12:33:42.782Z,15.20
2023-02-23T12:36:19.944Z,22.83
2023-02-23T12:38:50.290Z,16.00
2023-02-23T12:41:35.884Z,15.57
2023-02-23T12:44:18.562Z,16.58
2023-02-23T12:46:49.140Z,12.98
2023-02-23T12:49:28.641Z,16.13
2023-02-23T12:52:02.321Z,15.60
2023-02-23T12:54:31.800Z,16.55
2023-02-23T12:57:19.802Z,11.77
2023-02-23T13:00:24.938Z,17.63
2023-02-23T13:03:36.755Z,13.60
2023-02-23T13:06:48.878Z,13.23
2023-02-23T13:09:22.910Z,14.68
2023-02-23T13:12:31.879Z,13.98
2023-02-23T13:15:40.871Z,12.55
2023-02-23T13:18:24.691Z,16.83
2023-02-23T13:21:01.889Z,10.95
2023-02-23T13:23:52.949Z,15.57
2023-02-23T13:26:51.591Z,15.93
2023-02-23T13:29:35.030Z,12.13
2023-02-23T13:32:05.914Z,14.35
2023-02-23T13:34:37.169Z,12.00
2023-02-23T13:37:07.530Z,12.27
2023-02-23T13:39:39.016Z,17.77
2023-02-23T13:42:31.859Z,11.75
2023-02-23T13:45:01.702Z,16.17
2023-02-23T13:47:47.268Z,18.02
2023-02-23T13:50:37.897Z,12.77
2023-02-23T13:53:07.249Z,15.52
2023-02-23T13:55:50.182Z,11.10
2023-02-23T13:58:25.205Z,11.40
2023-02-23T14:01:21.445Z,13.40
2023-02-23T14:04:00.533Z,13.85
2023-02-23T14:06:33.112Z,14.65
2023-02-23T14:09:17.533Z,12.63
2023-02-23T14:11:51.622Z,15.27
2023-02-23T14:14:31.995Z,10.43
2023-02-23T14:17:35.716Z,13.57
2023-02-23T14:20:27.858Z,12.43
2023-02-23T14:23:17.720Z,12.45
2023-02-23T14:25:51.111Z,14.32
2023-02-23T14:28:30.869Z,16.65
2023-02-23T14:31:11.649Z,14.75
2023-02-23T14:33:43.180Z,14.55
2023-02-23T14:36:29.176Z,13.77
2023-02-23T14:41:55.103Z,17.48
2023-02-23T14:44:42.540Z,14.48
2023-02-23T14:47:15.358Z,15.43
2023-02-23T14:49:57.346Z,15.40
2023-02-23T14:52:36.547Z,21.17
2023-02-23T14:55:13.441Z,26.38
2023-02-23T14:57:44.133Z,15.43
2023-02-23T15:00:15.978Z,16.60
2023-02-23T15:03:05.109Z,17.85
2023-02-23T15:05:52.884Z,15.48
2023-02-23T15:08:25.097Z,18.25
2023-02-23T15:11:05.030Z,12.45
2023-02-23T15:14:02.307Z,12.75
2023-02-23T15:16:35.528Z,16.40
2023-02-23T15:19:08.732Z,13.52
2023-02-23T15:21:39.758Z,16.65
2023-02-23T15:24:49.000Z,15.73
2023-02-23T15:27:20.526Z,15.45
2023-02-23T15:29:48.721Z,15.27
2023-02-23T15:32:27.828Z,17.17
2023-02-23T15:35:03.682Z,16.20
2023-02-23T15:37:37.219Z,19.52
2023-02-23T15:40:15.668Z,17.75
2023-02-23T15:42:50.609Z,18.40
2023-02-23T15:45:32.449Z,16.20
2023-02-23T15:48:03.455Z,21.02
2023-02-23T15:50:37.246Z,22.08
2023-02-23T15:55:45.584Z,19.10
2023-02-23T15:58:21.991Z,19.30
2023-02-23T16:01:00.331Z,16.35
2023-02-23T16:03:35.066Z,32.88
2023-02-23T16:06:24.384Z,19.52
2023-02-23T16:09:20.078Z,20.50
2023-02-23T16:11:52.985Z,16.85
2023-02-23T16:14:32.573Z,18.17
2023-02-23T16:17:10.959Z,20.83
2023-02-23T16:19:41.753Z,20.30
2023-02-23T16:22:18.436Z,31.25
2023-02-23T16:24:51.047Z,25.00
2023-02-23T16:27:22.704Z,21.05
2023-02-23T16:29:56.800Z,23.00
2023-02-23T16:32:25.928Z,22.33
2023-02-23T16:35:00.511Z,24.05
2023-02-23T16:37:28.807Z,21.30
2023-02-23T16:40:00.297Z,22.00
2023-02-23T16:42:34.714Z,25.52
2023-02-23T16:45:03.077Z,19.33
2023-02-23T16:47:38.240Z,22.95
2023-02-23T16:50:20.320Z,25.33
2023-02-23T16:52:53.132Z,31.73
2023-02-23T16:55:26.360Z,22.83
2023-02-23T16:58:00.191Z,25.95
2023-02-23T17:00:30.306Z,27.38
2023-02-23T17:03:00.779Z,30.40
2023-02-23T17:05:29.583Z,32.90
2023-02-23T17:07:59.303Z,26.13
2023-02-23T17:10:31.939Z,27.10
2023-02-23T17:13:06.462Z,26.77
2023-02-23T17:15:36.442Z,27.70
2023-02-23T17:18:04.795Z,32.83
2023-02-23T17:20:38.752Z,33.70
2023-02-23T17:23:08.868Z,47.10
2023-02-23T17:25:37.885Z,139.98
2023-02-23T17:28:06.769Z,161.65
2023-02-23T17:30:36.606Z,212.80
2023-02-23T17:33:06.338Z,207.65
2023-02-23T17:35:37.717Z,189.70
2023-02-23T17:38:27.838Z,194.95
2023-02-23T17:40:58.193Z,175.20
2023-02-23T17:43:26.907Z,178.63
2023-02-23T17:45:56.858Z,144.77
2023-02-23T17:48:27.102Z,156.85
2023-02-23T17:50:59.398Z,172.95
2023-02-23T17:53:32.629Z,206.95
2023-02-23T17:56:01.901Z,194.48
2023-02-23T17:58:30.721Z,151.57
2023-02-23T18:01:02.097Z,166.55
2023-02-23T18:03:32.269Z,160.02
2023-02-23T18:06:11.698Z,154.43
2023-02-23T18:08:42.731Z,150.93
2023-02-23T18:11:10.986Z,155.02
2023-02-23T18:13:39.405Z,141.05
2023-02-23T18:16:11.644Z,147.48
2023-02-23T18:18:41.641Z,129.88
2023-02-23T18:21:12.696Z,140.65
2023-02-23T18:23:41.943Z,124.57
2023-02-23T18:26:14.643Z,155.20
2023-02-23T18:28:46.923Z,152.00
2023-02-23T18:31:28.163Z,143.50
2023-02-23T18:34:00.466Z,167.93
2023-02-23T18:36:35.496Z,183.07
2023-02-23T18:39:06.630Z,231.50
2023-02-23T18:41:39.168Z,252.90
2023-02-23T18:44:17.176Z,214.68
2023-02-23T18:46:46.658Z,208.70
2023-02-23T18:49:17.927Z,196.57
2023-02-23T18:51:49.599Z,200.60
2023-02-23T18:54:18.947Z,250.48
2023-02-23T18:56:47.743Z,266.25
2023-02-23T18:59:16.149Z,277.73
2023-02-23T19:01:46.673Z,324.42
2023-02-23T19:04:15.349Z,306.08
2023-02-23T19:06:45.536Z,313.27
2023-02-23T19:09:14.727Z,318.58
2023-02-23T19:11:45.261Z,283.38
2023-02-23T19:14:16.236Z,278.65
2023-02-23T19:16:45.540Z,266.73
2023-02-23T19:19:16.358Z,230.73
2023-02-23T19:21:47.004Z,219.50
2023-02-23T19:24:16.264Z,192.00
2023-02-23T19:26:44.593Z,186.65
2023-02-23T19:29:16.984Z,178.15
2023-02-23T19:31:49.287Z,170.32
2023-02-23T19:34:21.619Z,175.00
2023-02-23T19:36:50.574Z,178.00
2023-02-23T19:39:21.447Z,165.50
2023-02-23T19:41:51.716Z,185.32
2023-02-23T19:44:25.132Z,202.40
2023-02-23T19:46:53.576Z,188.18
2023-02-23T19:49:26.094Z,163.50
2023-02-23T19:51:57.927Z,148.10
2023-02-23T19:54:29.056Z,146.35
2023-02-23T19:56:58.003Z,146.07
2023-02-23T19:59:28.697Z,149.63
2023-02-23T20:02:04.614Z,155.48
2023-02-23T20:04:32.813Z,179.60
2023-02-23T20:07:03.001Z,202.32
2023-02-23T20:09:34.598Z,173.13
2023-02-23T20:12:09.361Z,225.07
2023-02-23T20:14:39.711Z,229.32
2023-02-23T20:17:09.512Z,234.43
2023-02-23T20:19:42.290Z,189.00
2023-02-23T20:22:18.436Z,199.15
2023-02-23T20:24:50.681Z,152.95
2023-02-23T20:27:22.965Z,171.23
2023-02-23T20:29:53.561Z,157.75
2023-02-23T20:32:21.752Z,188.93
2023-02-23T20:34:52.617Z,146.95
2023-02-23T20:37:20.640Z,165.48
2023-02-23T20:39:50.252Z,214.32
2023-02-23T20:42:20.109Z,214.75
2023-02-23T20:44:48.341Z,184.50
2023-02-23T20:47:21.096Z,170.80
2023-02-23T20:49:49.722Z,173.48
2023-02-23T20:52:20.965Z,132.88
2023-02-23T20:54:50.012Z,126.57
2023-02-23T20:57:18.906Z,134.55
2023-02-23T20:59:48.226Z,127.03
2023-02-23T21:02:17.178Z,127.13
2023-02-23T21:04:46.042Z,144.75
2023-02-23T21:07:13.984Z,145.30
2023-02-23T21:09:44.417Z,147.32
2023-02-23T21:12:15.101Z,152.07
2023-02-23T21:14:43.090Z,120.35
2023-02-23T21:17:11.105Z,133.95
2023-02-23T21:19:39.119Z,144.35
2023-02-23T21:22:09.565Z,131.73
2023-02-23T21:24:41.250Z,127.03
2023-02-23T21:27:15.557Z,112.20
2023-02-23T21:29:44.304Z,101.50
2023-02-23T21:32:14.295Z,103.72
2023-02-23T21:34:42.903Z,99.55
2023-02-23T21:37:14.874Z,132.48
2023-02-23T21:39:46.783Z,126.55
2023-02-23T21:42:16.017Z,119.75
2023-02-23T21:44:48.438Z,108.53
2023-02-23T21:47:16.770Z,106.22
2023-02-23T21:49:49.323Z,104.60
2023-02-23T21:52:18.810Z,82.45
2023-02-23T21:54:51.496Z,77.55
2023-02-23T21:57:23.248Z,67.50
2023-02-23T21:59:58.082Z,71.05
2023-02-23T22:02:30.733Z,73.20
2023-02-23T22:05:01.978Z,74.65
2023-02-23T22:07:32.580Z,75.45
2023-02-23T22:10:03.691Z,70.30
2023-02-23T22:12:33.285Z,67.50
2023-02-23T22:15:07.457Z,72.85
2023-02-23T22:17:44.464Z,59.58
2023-02-23T22:20:23.208Z,58.10
2023-02-23T22:22:52.295Z,58.08
2023-02-23T22:25:20.708Z,60.47
2023-02-23T22:27:49.952Z,57.15
2023-02-23T22:30:23.068Z,63.80
2023-02-23T22:32:52.909Z,50.92
2023-02-23T22:35:22.145Z,52.65
2023-02-23T22:37:51.303Z,61.20
2023-02-23T22:40:19.231Z,50.50
2023-02-23T22:42:48.730Z,60.08
2023-02-23T22:45:18.804Z,67.28
2023-02-23T22:47:47.399Z,61.95
2023-02-23T22:50:22.121Z,67.93
2023-02-23T22:52:54.213Z,60.95
2023-02-23T22:55:24.087Z,72.18
2023-02-23T22:57:53.129Z,75.45
2023-02-23T23:00:22.247Z,69.63
2023-02-23T23:02:55.576Z,60.53
2023-02-23T23:05:24.472Z,70.70
2023-02-23T23:07:52.430Z,62.05
2023-02-23T23:10:22.429Z,68.70
2023-02-23T23:12:51.008Z,74.13
2023-02-23T23:15:23.017Z,71.68
2023-02-23T23:18:24.690Z,69.72
2023-02-23T23:20:55.513Z,59.67
2023-02-23T23:23:26.494Z,64.90
2023-02-23T23:26:00.489Z,61.45
2023-02-23T23:28:40.193Z,67.07
2023-02-23T23:31:11.092Z,54.60
2023-02-23T23:33:47.826Z,60.80
2023-02-23T23:36:19.990Z,58.97
2023-02-23T23:38:49.587Z,55.17
2023-02-23T23:41:19.269Z,52.63
2023-02-23T23:43:49.558Z,53.15
2023-02-23T23:46:23.570Z,59.00
2023-02-23T23:49:06.190Z,58.28
2023-02-23T23:52:18.407Z,52.78
2023-02-23T23:54:48.156Z,45.88
2023-02-23T23:57:18.176Z,44.15
2023-02-23T23:59:48.836Z,45.97
